sensor_id;sensor_type;location;lat;lon;timestamp;temperature;humidity
41058;DHT22;66768;48.884;2.258;2023-05-17T00:00:38;13.40;99.90
41058;DHT22;66768;48.884;2.258;2023-05-17T00:03:05;13.40;99.90
41058;DHT22;66768;48.884;2.258;2023-05-17T00:05:32;13.30;99.90
41058;DHT22;66768;48.884;2.258;2023-05-17T00:07:58;13.30;99.90
41058;DHT22;66768;48.884;2.258;2023-05-17T00:10:27;13.20;99.90
41058;DHT22;66768;48.884;2.258;2023-05-17T00:12:53;13.20;99.90
41058;DHT22;66768;48.884;2.258;2023-05-17T00:15:20;13.20;99.90
41058;DHT22;66768;48.884;2.258;2023-05-17T00:17:47;13.20;99.90
41058;DHT22;66768;48.884;2.258;2023-05-17T00:20:14;13.10;99.90
41058;DHT22;66768;48.884;2.258;2023-05-17T00:22:41;13.10;99.90
41058;DHT22;66768;48.884;2.258;2023-05-17T00:25:10;13.20;99.90
41058;DHT22;66768;48.884;2.258;2023-05-17T00:27:38;13.20;99.90
41058;DHT22;66768;48.884;2.258;2023-05-17T00:30:06;13.10;99.90
41058;DHT22;66768;48.884;2.258;2023-05-17T00:32:33;13.10;99.90
41058;DHT22;66768;48.884;2.258;2023-05-17T00:35:00;13.10;99.90
41058;DHT22;66768;48.884;2.258;2023-05-17T00:37:27;13.00;99.90
41058;DHT22;66768;48.884;2.258;2023-05-17T00:39:53;13.00;99.90
41058;DHT22;66768;48.884;2.258;2023-05-17T00:42:21;13.10;99.90
41058;DHT22;66768;48.884;2.258;2023-05-17T00:44:49;13.00;99.90
41058;DHT22;66768;48.884;2.258;2023-05-17T00:47:16;13.00;99.90
41058;DHT22;66768;48.884;2.258;2023-05-17T00:49:43;12.90;99.90
41058;DHT22;66768;48.884;2.258;2023-05-17T00:52:10;13.00;99.90
41058;DHT22;66768;48.884;2.258;2023-05-17T00:54:37;13.00;99.90
41058;DHT22;66768;48.884;2.258;2023-05-17T00:57:05;12.90;99.90
41058;DHT22;66768;48.884;2.258;2023-05-17T00:59:32;12.90;99.90
41058;DHT22;66768;48.884;2.258;2023-05-17T01:02:01;12.90;99.90
41058;DHT22;66768;48.884;2.258;2023-05-17T01:04:29;12.80;99.90
41058;DHT22;66768;48.884;2.258;2023-05-17T01:06:56;12.80;99.90
41058;DHT22;66768;48.884;2.258;2023-05-17T01:09:22;12.80;99.90
41058;DHT22;66768;48.884;2.258;2023-05-17T01:11:56;12.70;99.90
41058;DHT22;66768;48.884;2.258;2023-05-17T01:14:36;12.80;99.90
41058;DHT22;66768;48.884;2.258;2023-05-17T01:17:07;12.80;99.90
41058;DHT22;66768;48.884;2.258;2023-05-17T01:19:52;12.70;99.90
41058;DHT22;66768;48.884;2.258;2023-05-17T01:22:31;12.70;99.90
41058;DHT22;66768;48.884;2.258;2023-05-17T01:25:10;12.60;99.90
41058;DHT22;66768;48.884;2.258;2023-05-17T01:27:47;12.70;99.90
41058;DHT22;66768;48.884;2.258;2023-05-17T01:30:15;12.60;99.90
41058;DHT22;66768;48.884;2.258;2023-05-17T01:32:45;12.60;99.90
41058;DHT22;66768;48.884;2.258;2023-05-17T01:35:12;12.60;99.90
41058;DHT22;66768;48.884;2.258;2023-05-17T01:37:39;12.70;99.90
41058;DHT22;66768;48.884;2.258;2023-05-17T01:40:07;12.60;99.90
41058;DHT22;66768;48.884;2.258;2023-05-17T01:42:37;12.60;99.90
41058;DHT22;66768;48.884;2.258;2023-05-17T01:45:11;12.60;99.90
41058;DHT22;66768;48.884;2.258;2023-05-17T01:47:46;12.60;99.90
41058;DHT22;66768;48.884;2.258;2023-05-17T01:50:18;12.60;99.90
41058;DHT22;66768;48.884;2.258;2023-05-17T01:52:51;12.60;99.90
41058;DHT22;66768;48.884;2.258;2023-05-17T01:55:24;12.60;99.90
41058;DHT22;66768;48.884;2.258;2023-05-17T01:57:54;12.60;99.90
41058;DHT22;66768;48.884;2.258;2023-05-17T02:00:24;12.60;99.90
41058;DHT22;66768;48.884;2.258;2023-05-17T02:02:51;12.60;99.90
41058;DHT22;66768;48.884;2.258;2023-05-17T02:05:18;12.60;99.90
41058;DHT22;66768;48.884;2.258;2023-05-17T02:07:45;12.60;99.90
41058;DHT22;66768;48.884;2.258;2023-05-17T02:10:12;12.70;99.90
41058;DHT22;66768;48.884;2.258;2023-05-17T02:12:39;12.70;99.90
41058;DHT22;66768;48.884;2.258;2023-05-17T02:15:06;12.70;99.90
41058;DHT22;66768;48.884;2.258;2023-05-17T02:17:37;12.70;99.90
41058;DHT22;66768;48.884;2.258;2023-05-17T02:20:06;12.70;99.90
41058;DHT22;66768;48.884;2.258;2023-05-17T02:22:33;12.70;99.90
41058;DHT22;66768;48.884;2.258;2023-05-17T02:25:00;12.70;99.90
41058;DHT22;66768;48.884;2.258;2023-05-17T02:27:27;12.60;99.90
41058;DHT22;66768;48.884;2.258;2023-05-17T02:29:54;12.70;99.90
41058;DHT22;66768;48.884;2.258;2023-05-17T02:32:21;12.70;99.90
41058;DHT22;66768;48.884;2.258;2023-05-17T02:34:49;12.70;99.90
41058;DHT22;66768;48.884;2.258;2023-05-17T02:37:16;12.70;99.90
41058;DHT22;66768;48.884;2.258;2023-05-17T02:39:42;12.60;99.90
41058;DHT22;66768;48.884;2.258;2023-05-17T02:42:09;12.70;99.90
41058;DHT22;66768;48.884;2.258;2023-05-17T02:44:36;12.70;99.90
41058;DHT22;66768;48.884;2.258;2023-05-17T02:47:03;12.70;99.90
41058;DHT22;66768;48.884;2.258;2023-05-17T02:49:30;12.70;99.90
41058;DHT22;66768;48.884;2.258;2023-05-17T02:51:59;12.70;99.90
41058;DHT22;66768;48.884;2.258;2023-05-17T02:54:26;12.70;99.90
41058;DHT22;66768;48.884;2.258;2023-05-17T02:56:53;12.60;99.90
41058;DHT22;66768;48.884;2.258;2023-05-17T02:59:20;12.60;99.90
41058;DHT22;66768;48.884;2.258;2023-05-17T03:01:47;12.60;99.90
41058;DHT22;66768;48.884;2.258;2023-05-17T03:04:14;12.60;99.90
41058;DHT22;66768;48.884;2.258;2023-05-17T03:06:43;12.60;99.90
41058;DHT22;66768;48.884;2.258;2023-05-17T03:09:11;12.60;99.90
41058;DHT22;66768;48.884;2.258;2023-05-17T03:11:38;12.50;99.90
41058;DHT22;66768;48.884;2.258;2023-05-17T03:14:05;12.50;99.90
41058;DHT22;66768;48.884;2.258;2023-05-17T03:16:32;12.50;99.90
41058;DHT22;66768;48.884;2.258;2023-05-17T03:18:59;12.50;99.90
41058;DHT22;66768;48.884;2.258;2023-05-17T03:21:26;12.40;99.90
41058;DHT22;66768;48.884;2.258;2023-05-17T03:23:53;12.40;99.90
41058;DHT22;66768;48.884;2.258;2023-05-17T03:26:21;12.40;99.90
41058;DHT22;66768;48.884;2.258;2023-05-17T03:28:48;12.30;99.90
41058;DHT22;66768;48.884;2.258;2023-05-17T03:31:15;12.40;99.90
41058;DHT22;66768;48.884;2.258;2023-05-17T03:33:43;12.40;99.90
41058;DHT22;66768;48.884;2.258;2023-05-17T03:36:10;12.40;99.90
41058;DHT22;66768;48.884;2.258;2023-05-17T03:38:37;12.40;99.90
41058;DHT22;66768;48.884;2.258;2023-05-17T03:41:04;12.30;99.90
41058;DHT22;66768;48.884;2.258;2023-05-17T03:43:33;12.30;99.90
41058;DHT22;66768;48.884;2.258;2023-05-17T03:45:59;12.30;99.90
41058;DHT22;66768;48.884;2.258;2023-05-17T03:48:26;12.30;99.90
41058;DHT22;66768;48.884;2.258;2023-05-17T03:50:53;12.30;99.90
41058;DHT22;66768;48.884;2.258;2023-05-17T03:53:20;12.30;99.90
41058;DHT22;66768;48.884;2.258;2023-05-17T03:55:47;12.20;99.90
41058;DHT22;66768;48.884;2.258;2023-05-17T03:58:14;12.20;99.90
41058;DHT22;66768;48.884;2.258;2023-05-17T04:00:42;12.30;99.90
41058;DHT22;66768;48.884;2.258;2023-05-17T04:03:09;12.20;99.90
41058;DHT22;66768;48.884;2.258;2023-05-17T04:05:38;12.20;99.90
41058;DHT22;66768;48.884;2.258;2023-05-17T04:08:05;12.10;99.90
41058;DHT22;66768;48.884;2.258;2023-05-17T04:10:32;12.10;99.90
41058;DHT22;66768;48.884;2.258;2023-05-17T04:12:59;12.10;99.90
41058;DHT22;66768;48.884;2.258;2023-05-17T04:15:26;12.10;99.90
41058;DHT22;66768;48.884;2.258;2023-05-17T04:17:54;12.00;99.90
41058;DHT22;66768;48.884;2.258;2023-05-17T04:20:21;12.00;99.90
41058;DHT22;66768;48.884;2.258;2023-05-17T04:22:48;12.00;99.90
41058;DHT22;66768;48.884;2.258;2023-05-17T04:25:15;12.00;99.90
41058;DHT22;66768;48.884;2.258;2023-05-17T04:27:43;12.10;99.90
41058;DHT22;66768;48.884;2.258;2023-05-17T04:30:11;12.10;99.90
41058;DHT22;66768;48.884;2.258;2023-05-17T04:32:38;12.10;99.90
41058;DHT22;66768;48.884;2.258;2023-05-17T04:35:07;12.10;99.90
41058;DHT22;66768;48.884;2.258;2023-05-17T04:37:33;12.10;99.90
41058;DHT22;66768;48.884;2.258;2023-05-17T04:40:05;12.10;99.90
41058;DHT22;66768;48.884;2.258;2023-05-17T04:42:32;12.00;99.90
41058;DHT22;66768;48.884;2.258;2023-05-17T04:44:59;12.00;99.90
41058;DHT22;66768;48.884;2.258;2023-05-17T04:47:26;12.00;99.90
41058;DHT22;66768;48.884;2.258;2023-05-17T04:49:53;12.00;99.90
41058;DHT22;66768;48.884;2.258;2023-05-17T04:52:22;11.90;99.90
41058;DHT22;66768;48.884;2.258;2023-05-17T04:54:49;11.90;99.90
41058;DHT22;66768;48.884;2.258;2023-05-17T04:57:16;12.00;99.90
41058;DHT22;66768;48.884;2.258;2023-05-17T04:59:44;11.90;99.90
41058;DHT22;66768;48.884;2.258;2023-05-17T05:02:10;11.90;99.90
41058;DHT22;66768;48.884;2.258;2023-05-17T05:04:38;11.90;99.90
41058;DHT22;66768;48.884;2.258;2023-05-17T05:07:05;12.00;99.90
41058;DHT22;66768;48.884;2.258;2023-05-17T05:09:33;12.00;99.90
41058;DHT22;66768;48.884;2.258;2023-05-17T05:12:00;12.10;99.90
41058;DHT22;66768;48.884;2.258;2023-05-17T05:14:27;12.00;99.90
41058;DHT22;66768;48.884;2.258;2023-05-17T05:16:54;12.00;99.90
41058;DHT22;66768;48.884;2.258;2023-05-17T05:19:21;12.00;99.90
41058;DHT22;66768;48.884;2.258;2023-05-17T05:21:48;12.10;99.90
41058;DHT22;66768;48.884;2.258;2023-05-17T05:24:14;12.10;99.90
41058;DHT22;66768;48.884;2.258;2023-05-17T05:26:43;12.10;99.90
41058;DHT22;66768;48.884;2.258;2023-05-17T05:29:10;12.10;99.90
41058;DHT22;66768;48.884;2.258;2023-05-17T05:31:37;12.10;99.90
41058;DHT22;66768;48.884;2.258;2023-05-17T05:34:04;12.20;99.90
41058;DHT22;66768;48.884;2.258;2023-05-17T05:36:31;12.20;99.90
41058;DHT22;66768;48.884;2.258;2023-05-17T05:38:58;12.30;99.90
41058;DHT22;66768;48.884;2.258;2023-05-17T05:41:25;12.30;99.90
41058;DHT22;66768;48.884;2.258;2023-05-17T05:43:54;12.20;99.90
41058;DHT22;66768;48.884;2.258;2023-05-17T05:46:20;12.20;99.90
41058;DHT22;66768;48.884;2.258;2023-05-17T05:48:47;12.30;99.90
41058;DHT22;66768;48.884;2.258;2023-05-17T05:51:14;12.30;99.90
41058;DHT22;66768;48.884;2.258;2023-05-17T05:53:41;12.30;99.90
41058;DHT22;66768;48.884;2.258;2023-05-17T05:56:08;12.40;99.90
41058;DHT22;66768;48.884;2.258;2023-05-17T05:58:35;12.40;99.90
41058;DHT22;66768;48.884;2.258;2023-05-17T06:01:04;12.50;99.90
41058;DHT22;66768;48.884;2.258;2023-05-17T06:03:31;12.50;99.90
41058;DHT22;66768;48.884;2.258;2023-05-17T06:05:58;12.50;99.90
41058;DHT22;66768;48.884;2.258;2023-05-17T06:08:25;12.50;99.90
41058;DHT22;66768;48.884;2.258;2023-05-17T06:10:52;12.50;99.90
41058;DHT22;66768;48.884;2.258;2023-05-17T06:13:19;12.50;99.90
41058;DHT22;66768;48.884;2.258;2023-05-17T06:15:46;12.60;99.90
41058;DHT22;66768;48.884;2.258;2023-05-17T06:18:14;12.60;99.90
41058;DHT22;66768;48.884;2.258;2023-05-17T06:20:41;12.60;99.90
41058;DHT22;66768;48.884;2.258;2023-05-17T06:23:08;12.80;99.90
41058;DHT22;66768;48.884;2.258;2023-05-17T06:25:35;12.80;99.90
41058;DHT22;66768;48.884;2.258;2023-05-17T06:28:02;12.90;99.90
41058;DHT22;66768;48.884;2.258;2023-05-17T06:30:29;12.80;99.90
41058;DHT22;66768;48.884;2.258;2023-05-17T06:32:56;12.90;99.90
41058;DHT22;66768;48.884;2.258;2023-05-17T06:35:24;13.00;99.90
41058;DHT22;66768;48.884;2.258;2023-05-17T06:37:51;13.00;99.90
41058;DHT22;66768;48.884;2.258;2023-05-17T06:40:18;13.00;99.90
41058;DHT22;66768;48.884;2.258;2023-05-17T06:42:45;13.00;99.90
41058;DHT22;66768;48.884;2.258;2023-05-17T06:45:12;13.10;99.90
41058;DHT22;66768;48.884;2.258;2023-05-17T06:47:39;13.20;99.90
41058;DHT22;66768;48.884;2.258;2023-05-17T06:50:07;13.30;99.90
41058;DHT22;66768;48.884;2.258;2023-05-17T06:52:35;13.30;99.90
41058;DHT22;66768;48.884;2.258;2023-05-17T06:55:03;13.30;99.90
41058;DHT22;66768;48.884;2.258;2023-05-17T06:57:30;13.40;99.90
41058;DHT22;66768;48.884;2.258;2023-05-17T06:59:57;13.40;99.90
41058;DHT22;66768;48.884;2.258;2023-05-17T07:02:24;13.50;99.90
41058;DHT22;66768;48.884;2.258;2023-05-17T07:04:50;13.60;99.90
41058;DHT22;66768;48.884;2.258;2023-05-17T07:07:17;13.60;99.90
41058;DHT22;66768;48.884;2.258;2023-05-17T07:09:45;13.60;99.90
41058;DHT22;66768;48.884;2.258;2023-05-17T07:12:12;13.70;99.90
41058;DHT22;66768;48.884;2.258;2023-05-17T07:14:39;13.90;99.90
41058;DHT22;66768;48.884;2.258;2023-05-17T07:17:06;13.90;99.90
41058;DHT22;66768;48.884;2.258;2023-05-17T07:19:33;14.00;99.90
41058;DHT22;66768;48.884;2.258;2023-05-17T07:22:00;14.00;99.90
41058;DHT22;66768;48.884;2.258;2023-05-17T07:24:27;14.00;99.90
41058;DHT22;66768;48.884;2.258;2023-05-17T07:26:55;14.00;99.90
41058;DHT22;66768;48.884;2.258;2023-05-17T07:29:22;14.10;99.90
41058;DHT22;66768;48.884;2.258;2023-05-17T07:31:48;14.20;99.90
41058;DHT22;66768;48.884;2.258;2023-05-17T07:34:15;14.30;99.90
41058;DHT22;66768;48.884;2.258;2023-05-17T07:36:42;14.40;99.90
41058;DHT22;66768;48.884;2.258;2023-05-17T07:39:09;14.50;99.90
41058;DHT22;66768;48.884;2.258;2023-05-17T07:41:36;14.60;99.90
41058;DHT22;66768;48.884;2.258;2023-05-17T07:44:05;14.60;99.90
41058;DHT22;66768;48.884;2.258;2023-05-17T07:46:32;14.70;99.90
41058;DHT22;66768;48.884;2.258;2023-05-17T07:48:59;14.70;99.90
41058;DHT22;66768;48.884;2.258;2023-05-17T07:51:25;14.80;99.90
41058;DHT22;66768;48.884;2.258;2023-05-17T07:53:52;14.80;99.90
41058;DHT22;66768;48.884;2.258;2023-05-17T07:56:19;14.70;99.90
41058;DHT22;66768;48.884;2.258;2023-05-17T07:58:46;14.70;99.90
41058;DHT22;66768;48.884;2.258;2023-05-17T08:01:14;14.60;99.90
41058;DHT22;66768;48.884;2.258;2023-05-17T08:03:41;14.70;99.90
41058;DHT22;66768;48.884;2.258;2023-05-17T08:06:12;14.80;99.90
41058;DHT22;66768;48.884;2.258;2023-05-17T08:08:40;14.80;99.90
41058;DHT22;66768;48.884;2.258;2023-05-17T08:11:08;15.00;99.90
41058;DHT22;66768;48.884;2.258;2023-05-17T08:13:34;15.20;99.40
41058;DHT22;66768;48.884;2.258;2023-05-17T08:16:01;15.30;99.20
41058;DHT22;66768;48.884;2.258;2023-05-17T08:18:33;15.40;99.00
41058;DHT22;66768;48.884;2.258;2023-05-17T08:21:01;15.60;98.80
41058;DHT22;66768;48.884;2.258;2023-05-17T08:23:29;15.80;98.80
41058;DHT22;66768;48.884;2.258;2023-05-17T08:25:56;15.90;98.70
41058;DHT22;66768;48.884;2.258;2023-05-17T08:28:22;15.80;98.30
41058;DHT22;66768;48.884;2.258;2023-05-17T08:30:49;16.00;98.10
41058;DHT22;66768;48.884;2.258;2023-05-17T08:33:16;16.10;96.40
41058;DHT22;66768;48.884;2.258;2023-05-17T08:35:46;16.10;95.70
41058;DHT22;66768;48.884;2.258;2023-05-17T08:38:14;16.00;95.60
41058;DHT22;66768;48.884;2.258;2023-05-17T08:40:41;16.10;95.30
41058;DHT22;66768;48.884;2.258;2023-05-17T08:43:11;16.00;94.90
41058;DHT22;66768;48.884;2.258;2023-05-17T08:45:39;16.10;95.40
41058;DHT22;66768;48.884;2.258;2023-05-17T08:48:06;16.10;95.70
41058;DHT22;66768;48.884;2.258;2023-05-17T08:50:33;15.90;95.70
41058;DHT22;66768;48.884;2.258;2023-05-17T08:53:02;15.80;95.80
41058;DHT22;66768;48.884;2.258;2023-05-17T08:55:30;15.70;95.90
41058;DHT22;66768;48.884;2.258;2023-05-17T08:58:00;15.90;96.10
41058;DHT22;66768;48.884;2.258;2023-05-17T09:00:29;15.90;95.70
41058;DHT22;66768;48.884;2.258;2023-05-17T09:02:58;16.00;95.80
41058;DHT22;66768;48.884;2.258;2023-05-17T09:05:25;16.10;95.80
41058;DHT22;66768;48.884;2.258;2023-05-17T09:07:52;16.40;94.70
41058;DHT22;66768;48.884;2.258;2023-05-17T09:10:21;16.90;93.40
41058;DHT22;66768;48.884;2.258;2023-05-17T09:12:47;16.40;94.20
41058;DHT22;66768;48.884;2.258;2023-05-17T09:15:16;16.20;94.10
41058;DHT22;66768;48.884;2.258;2023-05-17T09:17:45;16.10;94.60
41058;DHT22;66768;48.884;2.258;2023-05-17T09:20:21;15.90;94.50
41058;DHT22;66768;48.884;2.258;2023-05-17T09:22:49;15.90;94.50
41058;DHT22;66768;48.884;2.258;2023-05-17T09:25:20;15.80;94.60
41058;DHT22;66768;48.884;2.258;2023-05-17T09:27:46;15.80;94.90
41058;DHT22;66768;48.884;2.258;2023-05-17T09:30:13;15.80;94.70
41058;DHT22;66768;48.884;2.258;2023-05-17T09:32:43;15.70;94.80
41058;DHT22;66768;48.884;2.258;2023-05-17T09:35:11;15.70;94.90
41058;DHT22;66768;48.884;2.258;2023-05-17T09:37:38;15.70;94.80
41058;DHT22;66768;48.884;2.258;2023-05-17T09:40:06;15.60;94.80
41058;DHT22;66768;48.884;2.258;2023-05-17T09:42:35;15.70;94.60
41058;DHT22;66768;48.884;2.258;2023-05-17T09:45:04;15.60;94.50
41058;DHT22;66768;48.884;2.258;2023-05-17T09:47:31;15.60;94.30
41058;DHT22;66768;48.884;2.258;2023-05-17T09:50:00;15.60;94.40
41058;DHT22;66768;48.884;2.258;2023-05-17T09:52:28;15.70;94.80
41058;DHT22;66768;48.884;2.258;2023-05-17T09:54:57;15.70;95.00
41058;DHT22;66768;48.884;2.258;2023-05-17T09:57:26;15.70;94.80
41058;DHT22;66768;48.884;2.258;2023-05-17T09:59:56;15.70;94.30
41058;DHT22;66768;48.884;2.258;2023-05-17T10:02:27;15.80;94.30
41058;DHT22;66768;48.884;2.258;2023-05-17T10:04:56;15.80;94.30
41058;DHT22;66768;48.884;2.258;2023-05-17T10:07:25;15.70;93.80
41058;DHT22;66768;48.884;2.258;2023-05-17T10:09:53;15.80;93.80
41058;DHT22;66768;48.884;2.258;2023-05-17T10:12:21;15.80;94.30
41058;DHT22;66768;48.884;2.258;2023-05-17T10:14:50;15.80;93.50
41058;DHT22;66768;48.884;2.258;2023-05-17T10:17:21;15.70;93.60
41058;DHT22;66768;48.884;2.258;2023-05-17T10:19:50;15.80;93.90
41058;DHT22;66768;48.884;2.258;2023-05-17T10:22:17;15.80;93.00
41058;DHT22;66768;48.884;2.258;2023-05-17T10:24:47;15.80;93.10
41058;DHT22;66768;48.884;2.258;2023-05-17T10:27:15;15.80;92.40
41058;DHT22;66768;48.884;2.258;2023-05-17T10:29:43;15.80;92.40
41058;DHT22;66768;48.884;2.258;2023-05-17T10:32:12;15.80;92.40
41058;DHT22;66768;48.884;2.258;2023-05-17T10:34:42;15.90;92.40
41058;DHT22;66768;48.884;2.258;2023-05-17T10:37:11;15.90;92.00
41058;DHT22;66768;48.884;2.258;2023-05-17T10:39:39;15.90;92.50
41058;DHT22;66768;48.884;2.258;2023-05-17T10:42:12;15.90;91.50
41058;DHT22;66768;48.884;2.258;2023-05-17T10:44:41;16.00;91.80
41058;DHT22;66768;48.884;2.258;2023-05-17T10:47:08;16.00;91.80
41058;DHT22;66768;48.884;2.258;2023-05-17T10:49:36;16.00;91.60
41058;DHT22;66768;48.884;2.258;2023-05-17T10:52:15;16.00;91.50
41058;DHT22;66768;48.884;2.258;2023-05-17T10:54:43;16.00;91.20
41058;DHT22;66768;48.884;2.258;2023-05-17T10:57:18;16.10;91.20
41058;DHT22;66768;48.884;2.258;2023-05-17T10:59:55;16.10;91.40
41058;DHT22;66768;48.884;2.258;2023-05-17T11:02:26;16.20;91.30
41058;DHT22;66768;48.884;2.258;2023-05-17T11:04:53;16.20;90.90
41058;DHT22;66768;48.884;2.258;2023-05-17T11:07:25;16.20;91.00
41058;DHT22;66768;48.884;2.258;2023-05-17T11:09:54;16.20;90.80
41058;DHT22;66768;48.884;2.258;2023-05-17T11:12:33;16.30;90.70
41058;DHT22;66768;48.884;2.258;2023-05-17T11:15:04;16.40;90.80
41058;DHT22;66768;48.884;2.258;2023-05-17T11:17:45;16.40;90.90
41058;DHT22;66768;48.884;2.258;2023-05-17T11:20:29;16.40;90.80
41058;DHT22;66768;48.884;2.258;2023-05-17T11:22:59;16.60;90.60
41058;DHT22;66768;48.884;2.258;2023-05-17T11:25:27;16.60;89.90
41058;DHT22;66768;48.884;2.258;2023-05-17T11:27:55;16.60;90.10
41058;DHT22;66768;48.884;2.258;2023-05-17T11:30:24;16.60;89.40
41058;DHT22;66768;48.884;2.258;2023-05-17T11:32:59;16.70;90.10
41058;DHT22;66768;48.884;2.258;2023-05-17T11:35:27;16.90;90.10
41058;DHT22;66768;48.884;2.258;2023-05-17T11:38:15;17.00;90.10
41058;DHT22;66768;48.884;2.258;2023-05-17T11:40:43;17.00;90.00
41058;DHT22;66768;48.884;2.258;2023-05-17T11:43:14;17.00;89.90
41058;DHT22;66768;48.884;2.258;2023-05-17T11:45:43;17.00;90.20
41058;DHT22;66768;48.884;2.258;2023-05-17T11:48:11;17.00;90.30
41058;DHT22;66768;48.884;2.258;2023-05-17T11:50:38;17.00;90.30
41058;DHT22;66768;48.884;2.258;2023-05-17T11:53:05;17.10;90.30
41058;DHT22;66768;48.884;2.258;2023-05-17T11:55:37;17.10;90.20
41058;DHT22;66768;48.884;2.258;2023-05-17T11:58:06;17.10;90.00
41058;DHT22;66768;48.884;2.258;2023-05-17T12:00:34;17.10;89.40
41058;DHT22;66768;48.884;2.258;2023-05-17T12:03:18;17.20;89.90
41058;DHT22;66768;48.884;2.258;2023-05-17T12:05:45;17.30;89.70
41058;DHT22;66768;48.884;2.258;2023-05-17T12:08:14;17.10;89.30
41058;DHT22;66768;48.884;2.258;2023-05-17T12:10:47;17.20;90.00
41058;DHT22;66768;48.884;2.258;2023-05-17T12:13:15;17.10;90.10
41058;DHT22;66768;48.884;2.258;2023-05-17T12:15:44;17.10;90.00
41058;DHT22;66768;48.884;2.258;2023-05-17T12:18:11;17.00;90.10
41058;DHT22;66768;48.884;2.258;2023-05-17T12:20:52;17.10;90.40
41058;DHT22;66768;48.884;2.258;2023-05-17T12:23:27;17.10;90.40
41058;DHT22;66768;48.884;2.258;2023-05-17T12:26:03;17.20;90.30
41058;DHT22;66768;48.884;2.258;2023-05-17T12:28:30;17.20;90.40
41058;DHT22;66768;48.884;2.258;2023-05-17T12:30:57;17.30;90.20
41058;DHT22;66768;48.884;2.258;2023-05-17T12:33:32;17.40;90.20
41058;DHT22;66768;48.884;2.258;2023-05-17T12:36:00;17.40;88.50
41058;DHT22;66768;48.884;2.258;2023-05-17T12:38:29;17.30;88.10
41058;DHT22;66768;48.884;2.258;2023-05-17T12:40:59;17.30;89.10
41058;DHT22;66768;48.884;2.258;2023-05-17T12:43:27;17.30;90.30
41058;DHT22;66768;48.884;2.258;2023-05-17T12:46:01;17.30;90.80
41058;DHT22;66768;48.884;2.258;2023-05-17T12:48:29;17.30;91.00
41058;DHT22;66768;48.884;2.258;2023-05-17T12:50:56;17.40;91.10
41058;DHT22;66768;48.884;2.258;2023-05-17T12:53:23;17.30;91.00
41058;DHT22;66768;48.884;2.258;2023-05-17T12:55:51;17.30;91.10
41058;DHT22;66768;48.884;2.258;2023-05-17T12:58:21;17.30;91.20
41058;DHT22;66768;48.884;2.258;2023-05-17T13:00:57;17.30;91.00
41058;DHT22;66768;48.884;2.258;2023-05-17T13:03:24;17.20;90.70
41058;DHT22;66768;48.884;2.258;2023-05-17T13:06:03;17.20;90.40
41058;DHT22;66768;48.884;2.258;2023-05-17T13:08:32;17.20;90.60
41058;DHT22;66768;48.884;2.258;2023-05-17T13:11:11;17.20;90.70
41058;DHT22;66768;48.884;2.258;2023-05-17T13:13:38;17.30;90.90
41058;DHT22;66768;48.884;2.258;2023-05-17T13:16:06;17.30;90.90
41058;DHT22;66768;48.884;2.258;2023-05-17T13:18:47;17.30;90.70
41058;DHT22;66768;48.884;2.258;2023-05-17T13:21:15;17.30;90.50
41058;DHT22;66768;48.884;2.258;2023-05-17T13:23:42;17.20;90.30
41058;DHT22;66768;48.884;2.258;2023-05-17T13:26:09;17.20;90.60
41058;DHT22;66768;48.884;2.258;2023-05-17T13:28:37;17.10;91.30
41058;DHT22;66768;48.884;2.258;2023-05-17T13:31:06;17.10;91.00
41058;DHT22;66768;48.884;2.258;2023-05-17T13:33:33;17.10;91.10
41058;DHT22;66768;48.884;2.258;2023-05-17T13:36:00;17.10;90.90
41058;DHT22;66768;48.884;2.258;2023-05-17T13:38:27;17.10;91.00
41058;DHT22;66768;48.884;2.258;2023-05-17T13:40:54;17.20;90.50
41058;DHT22;66768;48.884;2.258;2023-05-17T13:43:21;17.40;90.40
41058;DHT22;66768;48.884;2.258;2023-05-17T13:45:47;17.40;90.00
41058;DHT22;66768;48.884;2.258;2023-05-17T13:48:20;17.50;90.00
41058;DHT22;66768;48.884;2.258;2023-05-17T13:50:47;17.60;90.10
41058;DHT22;66768;48.884;2.258;2023-05-17T13:53:14;17.60;90.10
41058;DHT22;66768;48.884;2.258;2023-05-17T13:55:41;17.50;90.30
41058;DHT22;66768;48.884;2.258;2023-05-17T13:58:08;17.60;90.40
41058;DHT22;66768;48.884;2.258;2023-05-17T14:00:35;17.60;89.60
41058;DHT22;66768;48.884;2.258;2023-05-17T14:03:02;17.50;88.60
41058;DHT22;66768;48.884;2.258;2023-05-17T14:05:30;17.50;89.30
41058;DHT22;66768;48.884;2.258;2023-05-17T14:07:59;17.50;89.60
41058;DHT22;66768;48.884;2.258;2023-05-17T14:10:26;17.40;89.90
41058;DHT22;66768;48.884;2.258;2023-05-17T14:12:53;17.50;89.80
41058;DHT22;66768;48.884;2.258;2023-05-17T14:15:20;17.60;90.00
41058;DHT22;66768;48.884;2.258;2023-05-17T14:17:48;17.70;89.80
41058;DHT22;66768;48.884;2.258;2023-05-17T14:20:15;17.70;90.00
41058;DHT22;66768;48.884;2.258;2023-05-17T14:22:43;17.70;89.80
41058;DHT22;66768;48.884;2.258;2023-05-17T14:25:10;17.70;90.20
41058;DHT22;66768;48.884;2.258;2023-05-17T14:27:37;17.60;89.70
41058;DHT22;66768;48.884;2.258;2023-05-17T14:30:05;17.70;89.30
41058;DHT22;66768;48.884;2.258;2023-05-17T14:32:32;17.60;89.50
41058;DHT22;66768;48.884;2.258;2023-05-17T14:34:59;17.60;90.00
41058;DHT22;66768;48.884;2.258;2023-05-17T14:37:26;17.50;90.10
41058;DHT22;66768;48.884;2.258;2023-05-17T14:39:54;17.40;89.50
41058;DHT22;66768;48.884;2.258;2023-05-17T14:42:21;17.40;90.10
41058;DHT22;66768;48.884;2.258;2023-05-17T14:44:48;17.40;89.90
41058;DHT22;66768;48.884;2.258;2023-05-17T14:47:15;17.40;90.00
41058;DHT22;66768;48.884;2.258;2023-05-17T14:49:42;17.40;90.40
41058;DHT22;66768;48.884;2.258;2023-05-17T14:52:09;17.50;90.50
41058;DHT22;66768;48.884;2.258;2023-05-17T14:54:35;17.50;90.40
41058;DHT22;66768;48.884;2.258;2023-05-17T14:57:04;17.50;90.40
41058;DHT22;66768;48.884;2.258;2023-05-17T14:59:31;17.60;90.30
41058;DHT22;66768;48.884;2.258;2023-05-17T15:01:58;17.60;90.00
41058;DHT22;66768;48.884;2.258;2023-05-17T15:04:24;17.70;89.50
41058;DHT22;66768;48.884;2.258;2023-05-17T15:06:51;17.60;89.50
41058;DHT22;66768;48.884;2.258;2023-05-17T15:09:18;17.70;90.00
41058;DHT22;66768;48.884;2.258;2023-05-17T15:11:47;17.70;90.40
41058;DHT22;66768;48.884;2.258;2023-05-17T15:14:15;17.70;90.00
41058;DHT22;66768;48.884;2.258;2023-05-17T15:16:45;17.60;90.10
41058;DHT22;66768;48.884;2.258;2023-05-17T15:19:13;17.60;90.20
41058;DHT22;66768;48.884;2.258;2023-05-17T15:21:40;17.70;90.40
41058;DHT22;66768;48.884;2.258;2023-05-17T15:24:07;17.60;90.50
41058;DHT22;66768;48.884;2.258;2023-05-17T15:26:34;17.70;90.90
41058;DHT22;66768;48.884;2.258;2023-05-17T15:29:01;17.60;91.00
41058;DHT22;66768;48.884;2.258;2023-05-17T15:31:29;17.50;91.00
41058;DHT22;66768;48.884;2.258;2023-05-17T15:33:57;17.50;91.20
41058;DHT22;66768;48.884;2.258;2023-05-17T15:36:23;17.50;91.20